createdAt,value
2022-11-17T00:01:47.047Z,21.88
2022-11-17T00:03:51.488Z,21.86
2022-11-17T00:05:55.959Z,21.83
2022-11-17T00:08:00.373Z,21.8
2022-11-17T00:10:04.842Z,21.79
2022-11-17T00:12:09.308Z,21.77
2022-11-17T00:14:13.748Z,21.76
2022-11-17T00:16:18.197Z,21.74
2022-11-17T00:18:22.643Z,21.72
2022-11-17T00:20:27.123Z,21.71
2022-11-17T00:22:31.599Z,21.7
2022-11-17T00:24:35.994Z,21.68
2022-11-17T00:26:40.415Z,21.66
2022-11-17T00:28:44.841Z,21.65
2022-11-17T00:30:49.289Z,21.64
2022-11-17T00:32:53.765Z,21.62
2022-11-17T00:34:58.206Z,21.62
2022-11-17T00:37:02.644Z,21.6
2022-11-17T00:39:07.011Z,21.59
2022-11-17T00:41:11.470Z,21.58
2022-11-17T00:43:15.892Z,21.58
2022-11-17T00:45:20.390Z,21.56
2022-11-17T00:47:24.850Z,21.54
2022-11-17T00:49:29.351Z,21.5
2022-11-17T00:51:33.865Z,21.5
2022-11-17T00:53:38.354Z,21.48
2022-11-17T00:55:42.832Z,21.46
2022-11-17T00:57:47.612Z,21.44
2022-11-17T00:59:52.078Z,21.43
2022-11-17T01:01:56.666Z,21.43
2022-11-17T01:04:01.501Z,21.41
2022-11-17T01:06:06.539Z,21.41
2022-11-17T01:08:11.007Z,21.39
2022-11-17T01:10:15.517Z,21.38
2022-11-17T01:12:20.007Z,21.37
2022-11-17T01:14:24.600Z,21.37
2022-11-17T01:16:29.260Z,21.37
2022-11-17T01:18:33.747Z,21.36
2022-11-17T01:20:38.253Z,21.36
2022-11-17T01:22:42.820Z,21.34
2022-11-17T01:24:47.288Z,21.34
2022-11-17T01:26:51.831Z,21.32
2022-11-17T01:28:56.334Z,21.29
2022-11-17T01:31:00.889Z,21.29
2022-11-17T01:33:05.387Z,21.28
2022-11-17T01:35:09.893Z,21.28
2022-11-17T01:37:14.359Z,21.27
2022-11-17T01:39:19.045Z,21.27
2022-11-17T01:41:23.542Z,21.23
2022-11-17T01:43:27.998Z,21.21
2022-11-17T01:45:32.438Z,21.19
2022-11-17T01:47:36.965Z,21.18
2022-11-17T01:49:41.461Z,21.16
2022-11-17T01:51:45.977Z,21.15
2022-11-17T01:53:50.442Z,21.14
2022-11-17T01:55:54.828Z,21.14
2022-11-17T01:57:59.153Z,21.15
2022-11-17T02:00:03.479Z,21.14
2022-11-17T02:02:07.836Z,21.14
2022-11-17T02:04:12.200Z,21.12
2022-11-17T02:06:16.512Z,21.1
2022-11-17T02:08:20.940Z,21.09
2022-11-17T02:10:25.254Z,21.08
2022-11-17T02:12:29.545Z,21.07
2022-11-17T02:14:33.852Z,21.04
2022-11-17T02:16:38.169Z,21.03
2022-11-17T02:18:42.523Z,21.01
2022-11-17T02:20:46.842Z,21
2022-11-17T02:22:51.158Z,20.98
2022-11-17T02:24:55.505Z,20.97
2022-11-17T02:26:59.813Z,20.96
2022-11-17T02:29:04.364Z,20.96
2022-11-17T02:31:08.685Z,20.95
2022-11-17T02:33:13.012Z,20.95
2022-11-17T02:35:17.399Z,20.94
2022-11-17T02:37:21.705Z,20.94
2022-11-17T02:39:26.022Z,20.94
2022-11-17T02:41:30.361Z,20.92
2022-11-17T02:43:34.963Z,20.91
2022-11-17T02:45:40.169Z,20.9
2022-11-17T02:47:44.498Z,20.89
2022-11-17T02:49:48.810Z,20.88
2022-11-17T02:51:53.134Z,20.86
2022-11-17T02:53:57.433Z,20.86
2022-11-17T02:56:01.750Z,20.84
2022-11-17T02:58:06.044Z,20.84
2022-11-17T03:00:10.327Z,20.84
2022-11-17T03:02:14.649Z,20.83
2022-11-17T03:04:18.931Z,20.81
2022-11-17T03:06:23.208Z,20.8
2022-11-17T03:08:31.656Z,20.8
2022-11-17T03:10:37.192Z,20.79
2022-11-17T03:12:41.575Z,20.78
2022-11-17T03:14:45.880Z,20.78
2022-11-17T03:16:50.172Z,20.78
2022-11-17T03:18:54.508Z,20.77
2022-11-17T03:20:58.858Z,20.76
2022-11-17T03:23:03.157Z,20.76
2022-11-17T03:25:07.473Z,20.75
2022-11-17T03:27:11.783Z,20.76
2022-11-17T03:29:16.135Z,20.73
2022-11-17T03:31:20.430Z,20.74
2022-11-17T03:33:24.774Z,20.73
2022-11-17T03:35:29.111Z,20.72
2022-11-17T03:37:33.483Z,20.71
2022-11-17T03:39:37.841Z,20.69
2022-11-17T03:41:42.151Z,20.67
2022-11-17T03:43:46.468Z,20.67
2022-11-17T03:45:50.819Z,20.65
2022-11-17T03:47:55.130Z,20.64
2022-11-17T03:49:59.476Z,20.64
2022-11-17T03:52:03.793Z,20.63
2022-11-17T03:54:08.075Z,20.61
2022-11-17T03:56:12.383Z,20.6
2022-11-17T03:58:16.665Z,20.58
2022-11-17T04:00:20.938Z,20.58
2022-11-17T04:02:25.276Z,20.56
2022-11-17T04:04:29.877Z,20.57
2022-11-17T04:06:34.225Z,20.56
2022-11-17T04:08:38.525Z,20.57
2022-11-17T04:10:42.854Z,20.57
2022-11-17T04:12:47.223Z,20.56
2022-11-17T04:14:51.537Z,20.55
2022-11-17T04:16:56.133Z,20.54
2022-11-17T04:19:00.465Z,20.52
2022-11-17T04:21:04.790Z,20.5
2022-11-17T04:23:09.112Z,20.48
2022-11-17T04:25:13.457Z,20.47
2022-11-17T04:27:17.781Z,20.46
2022-11-17T04:29:22.076Z,20.47
2022-11-17T04:31:26.409Z,20.46
2022-11-17T04:33:30.716Z,20.47
2022-11-17T04:35:35.728Z,20.47
2022-11-17T04:37:40.047Z,20.48
2022-11-17T04:39:44.344Z,20.48
2022-11-17T04:41:48.688Z,20.48
2022-11-17T04:43:52.983Z,20.47
2022-11-17T04:45:57.425Z,20.48
2022-11-17T04:48:01.721Z,20.47
2022-11-17T04:50:06.050Z,20.48
2022-11-17T04:52:10.374Z,20.48
2022-11-17T04:54:14.652Z,20.48
2022-11-17T04:56:18.937Z,20.48
2022-11-17T04:58:23.285Z,20.47
2022-11-17T05:00:27.617Z,20.46
2022-11-17T05:02:31.942Z,20.45
2022-11-17T05:04:36.457Z,20.43
2022-11-17T05:06:40.758Z,20.42
2022-11-17T05:08:45.057Z,20.4
2022-11-17T05:10:49.404Z,20.39
2022-11-17T05:12:53.885Z,20.38
2022-11-17T05:14:58.240Z,20.37
2022-11-17T05:17:08.589Z,20.37
2022-11-17T05:19:15.165Z,20.35
2022-11-17T05:21:19.444Z,20.35
2022-11-17T05:23:23.736Z,20.35
2022-11-17T05:25:28.070Z,20.34
2022-11-17T05:27:32.369Z,20.35
2022-11-17T05:29:36.690Z,20.36
2022-11-17T05:31:40.978Z,20.35
2022-11-17T05:33:45.290Z,20.35
2022-11-17T05:35:49.605Z,20.33
2022-11-17T05:37:53.872Z,20.33
2022-11-17T05:39:58.184Z,20.41
2022-11-17T05:42:02.472Z,20.5
2022-11-17T05:44:06.786Z,20.59
2022-11-17T05:46:11.077Z,20.66
2022-11-17T05:48:15.399Z,20.72
2022-11-17T05:50:19.726Z,20.78
2022-11-17T05:52:24.044Z,20.83
2022-11-17T05:54:28.345Z,20.88
2022-11-17T05:56:32.655Z,20.92
2022-11-17T05:58:36.975Z,20.96
2022-11-17T06:00:41.310Z,20.99
2022-11-17T06:02:45.761Z,21.02
2022-11-17T06:04:50.099Z,21.04
2022-11-17T06:06:54.394Z,21.07
2022-11-17T06:08:58.863Z,21.09
2022-11-17T06:11:03.223Z,21.11
2022-11-17T06:13:07.509Z,21.13
2022-11-17T06:15:11.803Z,21.16
2022-11-17T06:17:20.573Z,21.2
2022-11-17T06:19:26.725Z,21.25
2022-11-17T06:21:43.308Z,21.29
2022-11-17T06:24:16.183Z,21.35
2022-11-17T06:26:20.519Z,21.38
2022-11-17T06:28:24.854Z,21.43
2022-11-17T06:30:29.206Z,21.46
2022-11-17T06:32:33.521Z,21.48
2022-11-17T06:34:37.819Z,21.5
2022-11-17T06:36:42.182Z,21.53
2022-11-17T06:38:46.499Z,21.55
2022-11-17T06:40:50.826Z,21.56
2022-11-17T06:42:55.179Z,21.6
2022-11-17T06:44:59.453Z,21.64
2022-11-17T06:47:03.791Z,21.66
2022-11-17T06:49:08.104Z,21.69
2022-11-17T06:51:12.418Z,21.71
2022-11-17T06:53:16.702Z,21.73
2022-11-17T06:55:21.004Z,21.73
2022-11-17T06:57:25.369Z,21.75
2022-11-17T06:59:29.656Z,21.75
2022-11-17T07:01:33.981Z,21.75
2022-11-17T07:03:38.384Z,21.75
2022-11-17T07:05:42.779Z,21.75
2022-11-17T07:07:47.099Z,21.76
2022-11-17T07:09:51.402Z,21.79
2022-11-17T07:11:55.722Z,21.82
2022-11-17T07:14:00.020Z,21.84
2022-11-17T07:16:04.293Z,21.86
2022-11-17T07:18:08.613Z,21.87
2022-11-17T07:20:12.961Z,21.87
2022-11-17T07:22:17.298Z,21.86
2022-11-17T07:24:21.625Z,21.89
2022-11-17T07:26:25.951Z,21.91
2022-11-17T07:28:30.280Z,21.91
2022-11-17T07:30:34.768Z,21.92
2022-11-17T07:32:39.095Z,21.91
2022-11-17T07:34:43.406Z,21.92
2022-11-17T07:36:47.754Z,21.92
2022-11-17T07:38:52.128Z,21.92
2022-11-17T07:40:56.510Z,21.92
2022-11-17T07:43:00.810Z,21.92
2022-11-17T07:45:05.070Z,21.93
2022-11-17T07:47:09.412Z,21.94
2022-11-17T07:49:13.846Z,21.94
2022-11-17T07:51:18.130Z,21.95
2022-11-17T07:53:22.475Z,21.95
2022-11-17T07:55:26.786Z,21.95
2022-11-17T07:57:31.221Z,21.95
2022-11-17T07:59:35.482Z,21.95
2022-11-17T08:01:39.831Z,21.94
2022-11-17T08:03:44.199Z,21.94
2022-11-17T08:05:48.957Z,21.94
2022-11-17T08:07:53.261Z,21.93
2022-11-17T08:09:57.570Z,21.94
2022-11-17T08:12:01.896Z,21.94
2022-11-17T08:14:06.389Z,21.93
2022-11-17T08:16:10.716Z,21.93
2022-11-17T08:18:15.060Z,21.92
2022-11-17T08:20:19.367Z,21.93
2022-11-17T08:22:23.691Z,21.93
2022-11-17T08:24:28.001Z,21.94
2022-11-17T08:26:32.279Z,21.93
2022-11-17T08:28:37.528Z,21.95
2022-11-17T08:30:43.131Z,21.95
2022-11-17T08:32:47.461Z,21.96
2022-11-17T08:34:51.767Z,21.97
2022-11-17T08:36:56.045Z,21.97
2022-11-17T08:39:00.381Z,21.97
2022-11-17T08:41:04.692Z,21.97
2022-11-17T08:43:09.011Z,21.97
2022-11-17T08:45:13.362Z,21.98
2022-11-17T08:47:17.684Z,21.99
2022-11-17T08:49:22.051Z,21.99
2022-11-17T08:51:26.400Z,22
2022-11-17T08:53:30.706Z,22.01
2022-11-17T08:55:39.637Z,22.01
2022-11-17T08:57:45.318Z,22.02
2022-11-17T08:59:49.660Z,22.03
2022-11-17T09:01:53.972Z,22.02
2022-11-17T09:03:58.296Z,22.02
2022-11-17T09:06:02.637Z,22.01
2022-11-17T09:08:30.075Z,22
2022-11-17T09:10:50.397Z,22
2022-11-17T09:12:54.751Z,22.01
2022-11-17T09:14:59.147Z,22
2022-11-17T09:17:03.502Z,22.03
2022-11-17T09:19:07.845Z,22.03
2022-11-17T09:21:12.190Z,22.04
2022-11-17T09:23:16.522Z,22.04
2022-11-17T09:25:20.838Z,22.05
2022-11-17T09:27:25.162Z,22.07
2022-11-17T09:29:29.491Z,22.06
2022-11-17T09:31:33.839Z,22.06
2022-11-17T09:33:38.573Z,22.07
2022-11-17T09:35:42.972Z,22.07
2022-11-17T09:37:47.326Z,22.07
2022-11-17T09:39:51.651Z,22.08
2022-11-17T09:41:56.427Z,22.08
2022-11-17T09:44:00.726Z,22.09
2022-11-17T09:46:07.612Z,22.1
2022-11-17T09:48:39.341Z,22.11
2022-11-17T09:50:45.428Z,22.12
2022-11-17T09:52:49.786Z,22.14
2022-11-17T09:54:54.110Z,22.13
2022-11-17T09:56:59.632Z,22.13
2022-11-17T09:59:03.992Z,22.13
2022-11-17T10:01:08.326Z,22.13
2022-11-17T10:03:12.729Z,22.12
2022-11-17T10:05:17.222Z,22.12
2022-11-17T10:07:21.569Z,22.11
2022-11-17T10:09:26.307Z,22.1
2022-11-17T10:11:30.725Z,22.1
2022-11-17T10:13:35.299Z,22.1
2022-11-17T10:15:40.881Z,22.1
2022-11-17T10:17:45.258Z,22.1
2022-11-17T10:19:49.598Z,22.1
2022-11-17T10:21:53.953Z,22.1
2022-11-17T10:23:58.238Z,22.1
2022-11-17T10:26:02.554Z,22.1
2022-11-17T10:28:06.909Z,22.1
2022-11-17T10:30:11.190Z,22.1
2022-11-17T10:32:15.587Z,22.1
2022-11-17T10:34:19.927Z,22.1
2022-11-17T10:36:33.441Z,22.1
2022-11-17T10:38:37.798Z,22.11
2022-11-17T10:40:42.113Z,22.11
2022-11-17T10:42:46.563Z,22.11
2022-11-17T10:44:50.915Z,22.12
2022-11-17T10:46:59.004Z,22.12
2022-11-17T10:49:06.855Z,22.12
2022-11-17T10:51:11.140Z,22.11
2022-11-17T10:53:15.582Z,22.12
2022-11-17T10:55:19.916Z,22.12
2022-11-17T10:57:24.237Z,22.12
2022-11-17T10:59:28.571Z,22.13
2022-11-17T11:01:32.997Z,22.12
2022-11-17T11:03:38.087Z,22.13
2022-11-17T11:05:42.747Z,22.14
2022-11-17T11:07:47.081Z,22.13
2022-11-17T11:09:51.386Z,22.13
2022-11-17T11:11:55.671Z,22.13
2022-11-17T11:14:00.043Z,22.13
2022-11-17T11:16:04.403Z,22.13
2022-11-17T11:18:08.687Z,22.13
2022-11-17T11:20:13.027Z,22.13
2022-11-17T11:22:21.127Z,22.13
2022-11-17T11:24:25.730Z,22.13
2022-11-17T11:26:30.091Z,22.13
2022-11-17T11:28:34.395Z,22.14
2022-11-17T11:30:42.477Z,22.15
2022-11-17T11:32:46.852Z,22.16
2022-11-17T11:34:51.173Z,22.16
2022-11-17T11:36:55.525Z,22.16
2022-11-17T11:38:59.809Z,22.17
2022-11-17T11:41:04.184Z,22.16
2022-11-17T11:43:08.502Z,22.16
2022-11-17T11:45:12.816Z,22.16
2022-11-17T11:47:17.125Z,22.17
2022-11-17T11:49:21.403Z,22.17
2022-11-17T11:51:25.756Z,22.17
2022-11-17T11:53:30.162Z,22.18
2022-11-17T11:55:34.464Z,22.18
2022-11-17T11:57:38.787Z,22.17
2022-11-17T11:59:43.113Z,22.17
2022-11-17T12:01:47.532Z,22.17
2022-11-17T12:03:52.005Z,22.16
2022-11-17T12:05:56.336Z,22.16
2022-11-17T12:08:02.575Z,22.16
2022-11-17T12:10:13.689Z,22.18
2022-11-17T12:12:18.058Z,22.18
2022-11-17T12:14:22.322Z,22.18
2022-11-17T12:16:26.643Z,22.18
2022-11-17T12:18:30.973Z,22.18
2022-11-17T12:20:35.314Z,22.18
2022-11-17T12:22:39.658Z,22.19
2022-11-17T12:24:43.951Z,22.21
2022-11-17T12:26:48.256Z,22.2
2022-11-17T12:28:52.602Z,22.21
2022-11-17T12:30:56.984Z,22.21
2022-11-17T12:33:01.344Z,22.22
2022-11-17T12:35:05.662Z,22.23
2022-11-17T12:37:10.016Z,22.23
2022-11-17T12:39:14.385Z,22.23
2022-11-17T12:41:18.675Z,22.23
2022-11-17T12:43:23.046Z,22.25
2022-11-17T12:45:27.344Z,22.26
2022-11-17T12:47:31.656Z,22.27
2022-11-17T12:49:35.980Z,22.28
2022-11-17T12:51:40.390Z,22.28
2022-11-17T12:53:44.791Z,22.29
2022-11-17T12:55:49.357Z,22.3
2022-11-17T12:57:53.698Z,22.29
2022-11-17T12:59:58.063Z,22.3
2022-11-17T13:02:02.436Z,22.31
2022-11-17T13:04:06.730Z,22.32
2022-11-17T13:06:34.174Z,22.31
2022-11-17T13:08:40.287Z,22.32
2022-11-17T13:10:44.623Z,22.32
2022-11-17T13:12:48.932Z,22.3
2022-11-17T13:14:53.279Z,22.3
2022-11-17T13:16:57.885Z,22.29
2022-11-17T13:19:02.162Z,22.29
2022-11-17T13:21:06.542Z,22.28
2022-11-17T13:23:10.826Z,22.3
2022-11-17T13:25:15.191Z,22.31
2022-11-17T13:27:19.650Z,22.32
2022-11-17T13:29:24.338Z,22.31
2022-11-17T13:31:28.844Z,22.3
2022-11-17T13:33:36.916Z,22.32
2022-11-17T13:35:43.904Z,22.33
2022-11-17T13:37:48.238Z,22.33
2022-11-17T13:39:52.558Z,22.33
2022-11-17T13:41:56.907Z,22.34
2022-11-17T13:44:01.272Z,22.34
2022-11-17T13:46:05.572Z,22.34
2022-11-17T13:48:09.907Z,22.34
2022-11-17T13:50:14.182Z,22.33
2022-11-17T13:52:18.490Z,22.33
2022-11-17T13:54:22.979Z,22.35
2022-11-17T13:56:27.286Z,22.35
2022-11-17T13:58:31.624Z,22.35
2022-11-17T14:00:35.983Z,22.36
2022-11-17T14:02:40.305Z,22.38
2022-11-17T14:04:44.664Z,22.35
2022-11-17T14:06:49.060Z,22.16
2022-11-17T14:08:54.395Z,22.03
2022-11-17T14:10:58.841Z,21.97
2022-11-17T14:13:03.243Z,21.92
2022-11-17T14:15:07.454Z,21.87
2022-11-17T14:17:11.772Z,21.83
2022-11-17T14:19:16.135Z,21.82
2022-11-17T14:21:20.525Z,21.8
2022-11-17T14:23:24.828Z,21.78
2022-11-17T14:25:29.178Z,21.76
2022-11-17T14:27:33.501Z,21.72
2022-11-17T14:29:37.850Z,21.72
2022-11-17T14:31:42.163Z,21.73
2022-11-17T14:33:46.527Z,21.76
2022-11-17T14:35:50.904Z,21.76
2022-11-17T14:37:55.289Z,21.79
2022-11-17T14:39:59.642Z,21.85
2022-11-17T14:42:03.978Z,21.86
2022-11-17T14:44:08.268Z,21.87
2022-11-17T14:46:12.605Z,21.9
2022-11-17T14:48:19.199Z,21.93
2022-11-17T14:50:24.123Z,21.94
2022-11-17T14:52:28.506Z,21.95
2022-11-17T14:54:32.858Z,21.96
2022-11-17T14:56:37.143Z,21.97
2022-11-17T14:58:41.451Z,21.96
2022-11-17T15:00:45.781Z,21.96
2022-11-17T15:02:50.086Z,21.96
2022-11-17T15:04:54.980Z,21.98
2022-11-17T15:07:01.428Z,21.97
2022-11-17T15:09:06.115Z,22.01
2022-11-17T15:11:10.462Z,22.02
2022-11-17T15:13:14.770Z,21.98
2022-11-17T15:15:19.092Z,21.92
2022-11-17T15:17:23.436Z,21.93
2022-11-17T15:19:27.752Z,22
2022-11-17T15:21:32.093Z,22.11
2022-11-17T15:23:36.422Z,22.17
2022-11-17T15:25:40.795Z,22.27
2022-11-17T15:27:45.111Z,22.33
2022-11-17T15:29:49.430Z,22.36
2022-11-17T15:31:53.742Z,22.36
2022-11-17T15:33:58.046Z,22.36
2022-11-17T15:36:02.407Z,22.36
2022-11-17T15:38:06.737Z,22.36
2022-11-17T15:40:12.962Z,22.37
2022-11-17T15:42:23.086Z,22.4
2022-11-17T15:44:27.401Z,22.42
2022-11-17T15:46:31.750Z,22.44
2022-11-17T15:48:36.088Z,22.43
2022-11-17T15:50:40.412Z,22.45
2022-11-17T15:55:19.111Z,22.47
2022-11-17T15:57:23.446Z,22.48
2022-11-17T15:59:27.748Z,22.51
2022-11-17T16:01:32.070Z,22.51
2022-11-17T16:03:36.478Z,22.51
2022-11-17T16:05:40.768Z,22.53
2022-11-17T16:09:50.568Z,22.6
2022-11-17T16:11:54.977Z,22.63
2022-11-17T16:13:59.467Z,22.65
2022-11-17T16:16:03.774Z,22.68
2022-11-17T16:18:08.112Z,22.69
2022-11-17T16:20:12.471Z,22.69
2022-11-17T16:22:16.987Z,22.69
2022-11-17T16:24:21.347Z,22.69
2022-11-17T16:26:25.678Z,22.69
2022-11-17T16:28:30.052Z,22.71
2022-11-17T16:30:35.651Z,22.72
2022-11-17T16:32:40.207Z,22.72
2022-11-17T16:34:44.541Z,22.72
2022-11-17T16:36:48.871Z,22.73
2022-11-17T16:39:00.665Z,22.75
2022-11-17T16:41:05.981Z,22.77
2022-11-17T16:43:10.302Z,22.79
2022-11-17T16:45:14.638Z,22.81
2022-11-17T16:47:18.996Z,22.85
2022-11-17T16:49:23.346Z,22.87
2022-11-17T16:51:27.629Z,22.87
2022-11-17T16:53:31.975Z,22.9
2022-11-17T16:55:36.260Z,22.92
2022-11-17T16:57:40.604Z,22.92
2022-11-17T16:59:44.884Z,22.93
2022-11-17T17:01:49.215Z,22.94
2022-11-17T17:03:53.516Z,22.94
2022-11-17T17:05:57.851Z,22.94
2022-11-17T17:08:02.198Z,22.96
2022-11-17T17:10:06.528Z,22.98
2022-11-17T17:12:10.894Z,23.01
2022-11-17T17:14:15.235Z,23.02
2022-11-17T17:16:19.623Z,23.05
2022-11-17T17:18:23.985Z,23.08
2022-11-17T17:20:28.296Z,23.11
2022-11-17T17:22:32.651Z,23.15
2022-11-17T17:24:37.051Z,23.17
2022-11-17T17:26:41.355Z,23.22
2022-11-17T17:28:45.684Z,23.27
2022-11-17T17:30:50.043Z,23.31
2022-11-17T17:32:54.371Z,23.34
2022-11-17T17:34:58.725Z,23.38
2022-11-17T17:37:03.052Z,23.43
2022-11-17T17:39:07.395Z,23.47
2022-11-17T17:41:11.756Z,23.53
2022-11-17T17:43:16.100Z,23.56
2022-11-17T17:45:20.483Z,23.58
2022-11-17T17:47:24.820Z,23.61
2022-11-17T17:49:29.184Z,23.62
2022-11-17T17:51:33.596Z,23.64
2022-11-17T17:53:37.920Z,23.66
2022-11-17T17:55:42.228Z,23.68
2022-11-17T17:57:46.546Z,23.69
2022-11-17T17:59:50.861Z,23.71
2022-11-17T18:01:55.156Z,23.72
2022-11-17T18:03:59.494Z,23.72
2022-11-17T18:06:03.923Z,23.73
2022-11-17T18:08:08.348Z,23.74
2022-11-17T18:10:12.741Z,23.74
2022-11-17T18:12:17.019Z,23.74
2022-11-17T18:14:21.353Z,23.73
2022-11-17T18:16:25.666Z,23.73
2022-11-17T18:18:30.194Z,23.73
2022-11-17T18:20:34.499Z,23.71
2022-11-17T18:22:38.784Z,23.7
2022-11-17T18:24:43.103Z,23.7
2022-11-17T18:26:47.411Z,23.69
2022-11-17T18:28:51.737Z,23.67
2022-11-17T18:30:56.142Z,23.65
2022-11-17T18:33:03.023Z,23.63
2022-11-17T18:35:07.545Z,23.63
2022-11-17T18:37:11.909Z,23.63
2022-11-17T18:39:16.359Z,23.62
2022-11-17T18:41:21.950Z,23.61
2022-11-17T18:43:26.256Z,23.61
2022-11-17T18:45:31.446Z,23.61
2022-11-17T18:47:35.781Z,23.6
2022-11-17T18:49:40.163Z,23.6
2022-11-17T18:51:44.541Z,23.6
2022-11-17T18:53:48.838Z,23.61
2022-11-17T18:55:53.229Z,23.62
2022-11-17T18:57:57.538Z,23.62
2022-11-17T19:00:01.858Z,23.64
2022-11-17T19:02:06.214Z,23.63
2022-11-17T19:04:10.551Z,23.63
2022-11-17T19:06:14.889Z,23.63
2022-11-17T19:08:19.234Z,23.64
2022-11-17T19:10:23.535Z,23.65
2022-11-17T19:12:27.872Z,23.67
2022-11-17T19:14:32.194Z,23.69
2022-11-17T19:16:40.964Z,23.7
2022-11-17T19:18:48.606Z,23.72
2022-11-17T19:20:53.059Z,23.73
2022-11-17T19:22:57.451Z,23.74
2022-11-17T19:25:01.884Z,23.75
2022-11-17T19:27:06.245Z,23.76
2022-11-17T19:29:15.906Z,23.76
2022-11-17T19:31:22.101Z,23.78
2022-11-17T19:33:26.407Z,23.77
2022-11-17T19:35:30.741Z,23.77
2022-11-17T19:37:35.060Z,23.69
2022-11-17T19:39:39.382Z,23.54
2022-11-17T19:41:43.815Z,23.49
2022-11-17T19:43:48.192Z,23.46
2022-11-17T19:45:52.565Z,23.46
2022-11-17T19:47:56.863Z,23.5
2022-11-17T19:50:01.225Z,23.51
2022-11-17T19:52:05.564Z,23.53
2022-11-17T19:54:09.868Z,23.55
2022-11-17T19:56:14.199Z,23.58
2022-11-17T19:58:18.532Z,23.57
2022-11-17T20:00:22.833Z,23.57
2022-11-17T20:02:27.189Z,23.59
2022-11-17T20:04:31.527Z,23.59
2022-11-17T20:06:35.911Z,23.59
2022-11-17T20:08:40.239Z,23.59
2022-11-17T20:10:44.539Z,23.56
2022-11-17T20:12:48.898Z,23.5
2022-11-17T20:14:53.235Z,23.38
2022-11-17T20:16:57.590Z,23.12
2022-11-17T20:19:01.949Z,22.94
2022-11-17T20:21:06.318Z,22.78
2022-11-17T20:23:10.717Z,22.67
2022-11-17T20:25:15.080Z,22.63
2022-11-17T20:27:19.429Z,22.61
2022-11-17T20:29:23.773Z,22.64
2022-11-17T20:31:28.106Z,22.65
2022-11-17T20:33:32.430Z,22.65
2022-11-17T20:35:36.767Z,22.69
2022-11-17T20:37:41.109Z,22.68
2022-11-17T20:39:45.437Z,22.67
2022-11-17T20:41:49.779Z,22.65
2022-11-17T20:43:54.077Z,22.68
2022-11-17T20:45:58.419Z,22.73
2022-11-17T20:48:02.737Z,22.75
2022-11-17T20:50:07.046Z,22.74
2022-11-17T20:52:13.436Z,22.71
2022-11-17T20:54:17.996Z,22.67
2022-11-17T20:56:22.359Z,22.65
2022-11-17T20:58:26.725Z,22.61
2022-11-17T21:00:31.050Z,22.56
2022-11-17T21:02:35.382Z,22.53
2022-11-17T21:04:39.775Z,22.5
2022-11-17T21:06:44.091Z,22.49
2022-11-17T21:08:48.480Z,22.48
2022-11-17T21:10:52.822Z,22.47
2022-11-17T21:12:57.189Z,22.45
2022-11-17T21:15:01.574Z,22.44
2022-11-17T21:17:06.028Z,22.43
2022-11-17T21:19:11.742Z,22.43
2022-11-17T21:21:16.707Z,22.42
2022-11-17T21:23:21.042Z,22.41
2022-11-17T21:25:25.472Z,22.41
2022-11-17T21:27:29.888Z,22.4
2022-11-17T21:29:34.257Z,22.39
2022-11-17T21:31:38.583Z,22.39
2022-11-17T21:33:42.884Z,22.38
2022-11-17T21:35:47.176Z,22.37
2022-11-17T21:37:51.530Z,22.36
2022-11-17T21:39:55.842Z,22.37
2022-11-17T21:42:00.196Z,22.35
2022-11-17T21:44:04.567Z,22.33
2022-11-17T21:46:08.886Z,22.32
2022-11-17T21:48:13.231Z,22.31
2022-11-17T21:50:17.566Z,22.3
2022-11-17T21:52:21.912Z,22.29
2022-11-17T21:54:26.269Z,22.29
2022-11-17T21:56:30.592Z,22.27
2022-11-17T21:58:34.968Z,22.27
2022-11-17T22:00:39.331Z,22.26
2022-11-17T22:02:43.858Z,22.25
2022-11-17T22:04:48.165Z,22.24
2022-11-17T22:06:52.526Z,22.24
2022-11-17T22:08:57.065Z,22.22
2022-11-17T22:11:01.378Z,22.23
2022-11-17T22:13:05.784Z,22.24
2022-11-17T22:15:11.736Z,22.23
2022-11-17T22:17:16.200Z,22.21
2022-11-17T22:19:20.704Z,22.21
2022-11-17T22:21:25.238Z,22.23
2022-11-17T22:23:29.529Z,22.22
2022-11-17T22:25:49.308Z,22.21
2022-11-17T22:27:53.705Z,22.18
2022-11-17T22:29:58.040Z,22.16
2022-11-17T22:32:02.361Z,22.14
2022-11-17T22:34:06.669Z,22.12
2022-11-17T22:36:11.008Z,22.1
2022-11-17T22:38:15.324Z,22.08
2022-11-17T22:40:19.641Z,22.06
2022-11-17T22:42:23.955Z,22.04
2022-11-17T22:44:28.338Z,22.02
2022-11-17T22:46:32.642Z,21.99
2022-11-17T22:48:36.952Z,21.97
2022-11-17T22:50:41.282Z,21.96
2022-11-17T22:52:45.585Z,21.94
2022-11-17T22:54:49.879Z,21.92
2022-11-17T22:56:54.197Z,21.92
2022-11-17T22:58:59.913Z,21.91
2022-11-17T23:01:04.411Z,21.9
2022-11-17T23:03:08.749Z,21.88
2022-11-17T23:05:13.368Z,21.88
2022-11-17T23:07:17.884Z,21.87
2022-11-17T23:09:22.715Z,21.86
2022-11-17T23:11:36.845Z,21.84
2022-11-17T23:13:42.371Z,21.85
2022-11-17T23:15:46.868Z,21.84
2022-11-17T23:17:51.407Z,21.84
2022-11-17T23:19:55.895Z,21.86
2022-11-17T23:22:00.380Z,21.85
2022-11-17T23:24:04.878Z,21.84
2022-11-17T23:26:09.392Z,21.83
2022-11-17T23:28:13.921Z,21.81
2022-11-17T23:30:18.391Z,21.8
2022-11-17T23:32:24.163Z,21.79
2022-11-17T23:34:28.707Z,21.78
2022-11-17T23:36:33.210Z,21.78
2022-11-17T23:38:37.885Z,21.77
2022-11-17T23:40:42.429Z,21.75
2022-11-17T23:42:46.953Z,21.74
2022-11-17T23:44:51.533Z,21.73
2022-11-17T23:46:56.088Z,21.72
2022-11-17T23:49:00.754Z,21.73
2022-11-17T23:51:05.278Z,21.72
2022-11-17T23:53:09.769Z,21.72
2022-11-17T23:55:14.328Z,21.71
2022-11-17T23:57:18.821Z,21.71
2022-11-17T23:59:23.357Z,21.7
